sensor_id;sensor_type;location;lat;lon;timestamp;pressure;altitude;pressure_sealevel;temperature;humidity
54122;BME280;40029;58.708;50.190;2023-01-29T10:00:35;99728.78;;;-1.54;46.29
54122;BME280;40029;58.708;50.190;2023-01-29T10:15:12;99704.22;;;-1.41;46.39
54122;BME280;40029;58.708;50.190;2023-01-29T10:23:46;99684.72;;;-1.31;45.79
54122;BME280;40029;58.708;50.190;2023-01-29T10:26:22;99664.09;;;-1.53;46.34
54122;BME280;40029;58.708;50.190;2023-01-29T10:28:57;99670.09;;;-1.46;47.16
54122;BME280;40029;58.708;50.190;2023-01-29T10:31:30;99666.81;;;-1.34;46.61
54122;BME280;40029;58.708;50.190;2023-01-29T10:36:43;99623.19;;;-1.54;46.90
54122;BME280;40029;58.708;50.190;2023-01-29T10:39:19;99660.00;;;-1.34;46.54
54122;BME280;40029;58.708;50.190;2023-01-29T10:47:48;99659.06;;;-1.40;46.90
54122;BME280;40029;58.708;50.190;2023-01-29T11:01:04;99654.97;;;-1.23;46.64
54122;BME280;40029;58.708;50.190;2023-01-29T11:03:35;99654.91;;;-1.29;47.01
54122;BME280;40029;58.708;50.190;2023-01-29T11:11:47;99648.09;;;-1.32;47.73
54122;BME280;40029;58.708;50.190;2023-01-29T11:14:27;99657.56;;;-1.15;47.20
54122;BME280;40029;58.708;50.190;2023-01-29T11:16:59;99601.94;;;-1.52;47.70
54122;BME280;40029;58.708;50.190;2023-01-29T11:19:41;99635.16;;;-1.50;48.42
54122;BME280;40029;58.708;50.190;2023-01-29T11:22:13;99652.44;;;-1.15;47.91
54122;BME280;40029;58.708;50.190;2023-01-29T11:24:46;99634.38;;;-1.41;48.29
54122;BME280;40029;58.708;50.190;2023-01-29T11:27:32;99638.78;;;-1.20;49.27
54122;BME280;40029;58.708;50.190;2023-01-29T11:30:08;99643.84;;;-1.30;48.02
54122;BME280;40029;58.708;50.190;2023-01-29T11:32:49;99628.50;;;-1.28;48.11
54122;BME280;40029;58.708;50.190;2023-01-29T11:35:23;99639.63;;;-1.23;48.83
54122;BME280;40029;58.708;50.190;2023-01-29T11:38:05;99637.97;;;-1.15;48.81
54122;BME280;40029;58.708;50.190;2023-01-29T11:40:39;99632.03;;;-1.12;48.34
54122;BME280;40029;58.708;50.190;2023-01-29T11:43:49;99627.72;;;-1.19;48.55
54122;BME280;40029;58.708;50.190;2023-01-29T11:46:14;99620.84;;;-1.30;48.71
54122;BME280;40029;58.708;50.190;2023-01-29T11:48:47;99624.25;;;-1.31;49.57
54122;BME280;40029;58.708;50.190;2023-01-29T11:51:26;99619.16;;;-1.24;49.08
54122;BME280;40029;58.708;50.190;2023-01-29T11:54:01;99620.09;;;-1.13;49.04
54122;BME280;40029;58.708;50.190;2023-01-29T11:56:45;99561.88;;;-1.54;48.73
54122;BME280;40029;58.708;50.190;2023-01-29T12:02:17;99603.81;;;-1.26;48.57
54122;BME280;40029;58.708;50.190;2023-01-29T12:04:50;99616.59;;;-1.26;49.46
54122;BME280;40029;58.708;50.190;2023-01-29T12:07:22;99610.66;;;-1.22;49.43
54122;BME280;40029;58.708;50.190;2023-01-29T12:09:56;99610.59;;;-1.28;49.38
54122;BME280;40029;58.708;50.190;2023-01-29T12:15:24;99614.16;;;-1.09;48.97
54122;BME280;40029;58.708;50.190;2023-01-29T12:18:04;99602.03;;;-1.38;49.72
54122;BME280;40029;58.708;50.190;2023-01-29T12:20:56;99614.97;;;-1.18;49.18
54122;BME280;40029;58.708;50.190;2023-01-29T12:24:03;99610.56;;;-1.34;49.52
54122;BME280;40029;58.708;50.190;2023-01-29T12:26:49;99601.22;;;-1.32;49.78
54122;BME280;40029;58.708;50.190;2023-01-29T12:35:32;99571.81;;;-1.88;52.23
54122;BME280;40029;58.708;50.190;2023-01-29T12:38:21;99587.38;;;-1.59;52.33
54122;BME280;40029;58.708;50.190;2023-01-29T12:41:03;99594.19;;;-1.59;51.52
54122;BME280;40029;58.708;50.190;2023-01-29T12:43:43;99586.56;;;-1.56;51.28
54122;BME280;40029;58.708;50.190;2023-01-29T12:46:42;99572.94;;;-1.54;51.03
54122;BME280;40029;58.708;50.190;2023-01-29T12:49:32;99586.63;;;-1.48;51.20
54122;BME280;40029;58.708;50.190;2023-01-29T12:55:02;99584.00;;;-1.53;51.75
54122;BME280;40029;58.708;50.190;2023-01-29T13:00:44;99582.41;;;-1.42;51.15
54122;BME280;40029;58.708;50.190;2023-01-29T13:06:21;99560.13;;;-1.58;52.09
54122;BME280;40029;58.708;50.190;2023-01-29T13:09:03;99567.91;;;-1.47;51.85
54122;BME280;40029;58.708;50.190;2023-01-29T13:11:55;99569.66;;;-1.37;51.89
54122;BME280;40029;58.708;50.190;2023-01-29T13:14:52;99559.34;;;-1.49;51.85
54122;BME280;40029;58.708;50.190;2023-01-29T13:17:30;99567.09;;;-1.37;51.56
54122;BME280;40029;58.708;50.190;2023-01-29T13:20:17;99553.41;;;-1.47;52.12
54122;BME280;40029;58.708;50.190;2023-01-29T13:22:51;99545.78;;;-1.41;51.60
54122;BME280;40029;58.708;50.190;2023-01-29T13:25:24;99553.50;;;-1.33;51.24
54122;BME280;40029;58.708;50.190;2023-01-29T13:27:55;99544.94;;;-1.41;51.57
54122;BME280;40029;58.708;50.190;2023-01-29T13:30:28;99503.75;;;-1.83;52.49
54122;BME280;40029;58.708;50.190;2023-01-29T13:33:02;99548.34;;;-1.41;52.58
54122;BME280;40029;58.708;50.190;2023-01-29T13:35:41;99550.09;;;-1.35;51.90
54122;BME280;40029;58.708;50.190;2023-01-29T13:38:25;99538.94;;;-1.46;51.59
54122;BME280;40029;58.708;50.190;2023-01-29T13:41:04;99547.63;;;-1.21;51.80
54122;BME280;40029;58.708;50.190;2023-01-29T13:43:38;99552.78;;;-1.11;51.45
54122;BME280;40029;58.708;50.190;2023-01-29T13:46:14;99510.09;;;-1.32;51.44
54122;BME280;40029;58.708;50.190;2023-01-29T13:48:48;99528.84;;;-1.27;51.39
54122;BME280;40029;58.708;50.190;2023-01-29T13:51:21;99488.66;;;-1.52;51.77
54122;BME280;40029;58.708;50.190;2023-01-29T13:53:59;99517.75;;;-1.30;51.29
54122;BME280;40029;58.708;50.190;2023-01-29T13:56:41;99528.03;;;-1.16;51.72
54122;BME280;40029;58.708;50.190;2023-01-29T14:02:21;99526.25;;;-1.28;51.50
54122;BME280;40029;58.708;50.190;2023-01-29T14:10:36;99509.22;;;-1.29;51.64
54122;BME280;40029;58.708;50.190;2023-01-29T14:18:29;99493.09;;;-1.20;52.10
54122;BME280;40029;58.708;50.190;2023-01-29T14:21:06;99489.63;;;-1.30;52.50
54122;BME280;40029;58.708;50.190;2023-01-29T14:23:50;99473.44;;;-1.34;51.77
54122;BME280;40029;58.708;50.190;2023-01-29T14:26:42;99491.41;;;-1.17;51.08
54122;BME280;40029;58.708;50.190;2023-01-29T14:37:02;99490.53;;;-1.16;51.12
54122;BME280;40029;58.708;50.190;2023-01-29T14:39:50;99502.44;;;-1.26;52.03
54122;BME280;40029;58.708;50.190;2023-01-29T14:55:53;99489.75;;;-1.03;51.18
54122;BME280;40029;58.708;50.190;2023-01-29T14:58:45;99481.19;;;-1.11;50.96
54122;BME280;40029;58.708;50.190;2023-01-29T15:01:34;99483.84;;;-0.88;51.09
54122;BME280;40029;58.708;50.190;2023-01-29T15:04:19;99488.84;;;-1.15;50.95
54122;BME280;40029;58.708;50.190;2023-01-29T15:09:36;99485.44;;;-1.19;51.94
54122;BME280;40029;58.708;50.190;2023-01-29T15:14:49;99489.72;;;-1.07;51.23
54122;BME280;40029;58.708;50.190;2023-01-29T15:17:41;99483.00;;;-0.88;51.22
54122;BME280;40029;58.708;50.190;2023-01-29T15:20:35;99482.91;;;-1.08;52.00
54122;BME280;40029;58.708;50.190;2023-01-29T15:23:29;99476.09;;;-1.14;53.00
54122;BME280;40029;58.708;50.190;2023-01-29T15:26:06;99464.16;;;-1.13;52.20
54122;BME280;40029;58.708;50.190;2023-01-29T15:28:38;99421.50;;;-1.31;51.73
54122;BME280;40029;58.708;50.190;2023-01-29T15:31:15;99473.59;;;-0.91;51.06
54122;BME280;40029;58.708;50.190;2023-01-29T15:33:50;99476.13;;;-0.94;51.55
54122;BME280;40029;58.708;50.190;2023-01-29T15:36:29;99454.84;;;-0.90;51.35
54122;BME280;40029;58.708;50.190;2023-01-29T15:39:17;99460.00;;;-0.73;50.74
54122;BME280;40029;58.708;50.190;2023-01-29T15:41:50;99468.47;;;-0.94;51.33
54122;BME280;40029;58.708;50.190;2023-01-29T15:44:33;99460.84;;;-0.79;50.84
54122;BME280;40029;58.708;50.190;2023-01-29T15:47:04;99450.63;;;-0.85;50.82
54122;BME280;40029;58.708;50.190;2023-01-29T15:49:38;99458.22;;;-1.09;51.72
54122;BME280;40029;58.708;50.190;2023-01-29T15:52:19;99445.41;;;-1.11;52.16
54122;BME280;40029;58.708;50.190;2023-01-29T15:54:54;99444.63;;;-0.96;51.88
54122;BME280;40029;58.708;50.190;2023-01-29T15:57:31;99454.81;;;-0.99;51.57
54122;BME280;40029;58.708;50.190;2023-01-29T16:00:06;99445.50;;;-0.88;51.65
54122;BME280;40029;58.708;50.190;2023-01-29T16:02:44;99448.06;;;-0.88;51.08
54122;BME280;40029;58.708;50.190;2023-01-29T16:05:26;99444.63;;;-0.91;51.36
54122;BME280;40029;58.708;50.190;2023-01-29T16:07:58;99453.16;;;-0.88;51.50
54122;BME280;40029;58.708;50.190;2023-01-29T16:10:30;99434.41;;;-0.93;51.37
54122;BME280;40029;58.708;50.190;2023-01-29T16:13:03;99440.38;;;-0.86;51.15
54122;BME280;40029;58.708;50.190;2023-01-29T16:15:59;99442.91;;;-0.94;51.83
54122;BME280;40029;58.708;50.190;2023-01-29T16:18:36;99434.44;;;-0.81;50.59
54122;BME280;40029;58.708;50.190;2023-01-29T16:21:56;99446.38;;;-0.80;51.14
54122;BME280;40029;58.708;50.190;2023-01-29T16:24:07;99437.84;;;-0.79;51.12
54122;BME280;40029;58.708;50.190;2023-01-29T16:26:45;99438.63;;;-0.99;51.34
54122;BME280;40029;58.708;50.190;2023-01-29T16:29:22;99429.25;;;-1.05;52.54
54122;BME280;40029;58.708;50.190;2023-01-29T16:31:55;99401.94;;;-1.12;51.48
54122;BME280;40029;58.708;50.190;2023-01-29T16:34:35;99431.81;;;-1.01;51.88
54122;BME280;40029;58.708;50.190;2023-01-29T16:37:18;99416.47;;;-1.05;52.44
54122;BME280;40029;58.708;50.190;2023-01-29T16:39:51;99425.84;;;-0.95;51.99
54122;BME280;40029;58.708;50.190;2023-01-29T16:42:29;99425.91;;;-0.83;51.63
54122;BME280;40029;58.708;50.190;2023-01-29T16:45:02;99358.47;;;-1.23;51.87
54122;BME280;40029;58.708;50.190;2023-01-29T16:47:38;99417.38;;;-0.85;52.08
54122;BME280;40029;58.708;50.190;2023-01-29T16:53:16;99424.19;;;-0.88;51.92
54122;BME280;40029;58.708;50.190;2023-01-29T16:55:49;99417.38;;;-0.85;52.09
54122;BME280;40029;58.708;50.190;2023-01-29T16:58:24;99408.00;;;-0.69;51.34
54122;BME280;40029;58.708;50.190;2023-01-29T17:01:09;99397.75;;;-0.89;51.97
54122;BME280;40029;58.708;50.190;2023-01-29T17:03:40;99403.69;;;-0.90;51.89
54122;BME280;40029;58.708;50.190;2023-01-29T17:06:18;99404.59;;;-0.72;51.63
54122;BME280;40029;58.708;50.190;2023-01-29T17:08:51;99379.00;;;-0.86;51.41
54122;BME280;40029;58.708;50.190;2023-01-29T17:11:37;99388.41;;;-0.74;50.86
54122;BME280;40029;58.708;50.190;2023-01-29T17:14:17;99363.63;;;-0.95;51.07
54122;BME280;40029;58.708;50.190;2023-01-29T17:16:54;99379.03;;;-0.66;50.65
54122;BME280;40029;58.708;50.190;2023-01-29T17:19:25;99387.53;;;-0.75;50.59
54122;BME280;40029;58.708;50.190;2023-01-29T17:21:57;99385.81;;;-0.73;51.36
54122;BME280;40029;58.708;50.190;2023-01-29T17:24:28;99378.97;;;-0.91;51.80
54122;BME280;40029;58.708;50.190;2023-01-29T17:27:00;99382.44;;;-0.69;50.74
54122;BME280;40029;58.708;50.190;2023-01-29T17:29:32;99370.44;;;-0.90;51.37
54122;BME280;40029;58.708;50.190;2023-01-29T17:32:03;99380.72;;;-0.79;51.49
54122;BME280;40029;58.708;50.190;2023-01-29T17:34:34;99380.72;;;-0.78;50.48
54122;BME280;40029;58.708;50.190;2023-01-29T17:37:10;99373.06;;;-0.81;50.92
54122;BME280;40029;58.708;50.190;2023-01-29T17:39:48;99361.94;;;-0.93;50.41
54122;BME280;40029;58.708;50.190;2023-01-29T17:42:30;99374.75;;;-0.89;50.70
54122;BME280;40029;58.708;50.190;2023-01-29T17:45:04;99384.13;;;-0.69;50.49
54122;BME280;40029;58.708;50.190;2023-01-29T17:47:35;99372.19;;;-0.80;49.76
54122;BME280;40029;58.708;50.190;2023-01-29T17:50:24;99371.34;;;-0.79;49.50
54122;BME280;40029;58.708;50.190;2023-01-29T17:52:56;99379.88;;;-0.70;49.24
54122;BME280;40029;58.708;50.190;2023-01-29T17:55:27;99383.25;;;-0.93;49.79
54122;BME280;40029;58.708;50.190;2023-01-29T17:57:58;99373.91;;;-0.76;49.72
54122;BME280;40029;58.708;50.190;2023-01-29T18:00:29;99363.66;;;-0.77;49.27
54122;BME280;40029;58.708;50.190;2023-01-29T18:03:00;99363.66;;;-0.65;48.79
54122;BME280;40029;58.708;50.190;2023-01-29T18:05:32;99374.78;;;-0.72;48.99
54122;BME280;40029;58.708;50.190;2023-01-29T18:08:03;99379.03;;;-0.68;48.77
54122;BME280;40029;58.708;50.190;2023-01-29T18:10:34;99377.31;;;-0.67;48.88
54122;BME280;40029;58.708;50.190;2023-01-29T18:13:05;99380.69;;;-0.82;48.60
54122;BME280;40029;58.708;50.190;2023-01-29T18:15:36;99345.75;;;-0.91;48.93
54122;BME280;40029;58.708;50.190;2023-01-29T18:18:12;99366.22;;;-0.85;48.45
54122;BME280;40029;58.708;50.190;2023-01-29T18:20:43;99380.72;;;-0.79;48.47
54122;BME280;40029;58.708;50.190;2023-01-29T18:23:15;99391.75;;;-0.89;48.36
54122;BME280;40029;58.708;50.190;2023-01-29T18:25:46;99386.66;;;-0.91;49.08
54122;BME280;40029;58.708;50.190;2023-01-29T18:28:17;99384.06;;;-1.03;49.15
54122;BME280;40029;58.708;50.190;2023-01-29T18:30:48;99387.44;;;-1.18;49.47
54122;BME280;40029;58.708;50.190;2023-01-29T18:33:19;99384.09;;;-1.06;49.01
54122;BME280;40029;58.708;50.190;2023-01-29T18:35:50;99344.81;;;-1.30;48.25
54122;BME280;40029;58.708;50.190;2023-01-29T18:38:24;99389.22;;;-0.95;48.65
54122;BME280;40029;58.708;50.190;2023-01-29T18:41:02;99383.25;;;-0.90;48.19
54122;BME280;40029;58.708;50.190;2023-01-29T18:43:33;99373.84;;;-1.05;48.40
54122;BME280;40029;58.708;50.190;2023-01-29T18:46:05;99371.28;;;-1.03;48.57
54122;BME280;40029;58.708;50.190;2023-01-29T18:48:37;99374.69;;;-1.13;48.53
54122;BME280;40029;58.708;50.190;2023-01-29T18:51:08;99382.34;;;-1.09;47.91
54122;BME280;40029;58.708;50.190;2023-01-29T18:53:39;99381.47;;;-1.21;47.60
54122;BME280;40029;58.708;50.190;2023-01-29T18:56:10;99365.22;;;-1.33;48.77
54122;BME280;40029;58.708;50.190;2023-01-29T18:58:41;99369.53;;;-1.26;48.21
54122;BME280;40029;58.708;50.190;2023-01-29T19:01:12;99370.38;;;-1.23;48.71
54122;BME280;40029;58.708;50.190;2023-01-29T19:03:43;99368.69;;;-1.23;48.07
54122;BME280;40029;58.708;50.190;2023-01-29T19:06:14;99370.41;;;-1.13;47.86
54122;BME280;40029;58.708;50.190;2023-01-29T19:08:45;99389.13;;;-1.21;48.03
54122;BME280;40029;58.708;50.190;2023-01-29T19:11:17;99379.78;;;-1.15;48.24
54122;BME280;40029;58.708;50.190;2023-01-29T19:13:48;99387.41;;;-1.24;48.04
54122;BME280;40029;58.708;50.190;2023-01-29T19:16:19;99376.31;;;-1.29;47.91
54122;BME280;40029;58.708;50.190;2023-01-29T19:18:52;99369.53;;;-1.24;47.96
54122;BME280;40029;58.708;50.190;2023-01-29T19:21:25;99378.91;;;-1.15;47.74
54122;BME280;40029;58.708;50.190;2023-01-29T19:23:56;99371.25;;;-1.18;47.22
54122;BME280;40029;58.708;50.190;2023-01-29T19:26:27;99375.47;;;-1.30;47.40
54122;BME280;40029;58.708;50.190;2023-01-29T19:29:03;99378.88;;;-1.34;48.10
54122;BME280;40029;58.708;50.190;2023-01-29T19:31:34;99375.44;;;-1.42;47.38
54122;BME280;40029;58.708;50.190;2023-01-29T19:34:05;99385.59;;;-1.54;47.94
54122;BME280;40029;58.708;50.190;2023-01-29T19:36:36;99375.38;;;-1.54;47.80
54122;BME280;40029;58.708;50.190;2023-01-29T19:39:07;99371.22;;;-1.28;47.90
54122;BME280;40029;58.708;50.190;2023-01-29T19:41:39;99366.91;;;-1.44;47.40
54122;BME280;40029;58.708;50.190;2023-01-29T19:44:11;99372.84;;;-1.51;47.59
54122;BME280;40029;58.708;50.190;2023-01-29T19:46:42;99321.72;;;-1.59;47.33
54122;BME280;40029;58.708;50.190;2023-01-29T19:49:13;99371.19;;;-1.37;47.25
54122;BME280;40029;58.708;50.190;2023-01-29T19:51:44;99374.56;;;-1.42;47.62
54122;BME280;40029;58.708;50.190;2023-01-29T19:54:15;99367.78;;;-1.43;47.36
54122;BME280;40029;58.708;50.190;2023-01-29T19:56:46;99366.88;;;-1.50;47.46
54122;BME280;40029;58.708;50.190;2023-01-29T19:59:17;99366.09;;;-1.40;47.78
54122;BME280;40029;58.708;50.190;2023-01-29T20:01:48;99364.38;;;-1.38;47.50
54122;BME280;40029;58.708;50.190;2023-01-29T20:04:19;99360.09;;;-1.46;47.66
54122;BME280;40029;58.708;50.190;2023-01-29T20:06:50;99364.25;;;-1.62;47.50
54122;BME280;40029;58.708;50.190;2023-01-29T20:09:22;99329.25;;;-1.91;48.09
54122;BME280;40029;58.708;50.190;2023-01-29T20:11:53;99359.09;;;-1.74;47.68
54122;BME280;40029;58.708;50.190;2023-01-29T20:14:23;99341.25;;;-1.73;47.55
54122;BME280;40029;58.708;50.190;2023-01-29T20:16:55;99310.53;;;-1.90;47.18
54122;BME280;40029;58.708;50.190;2023-01-29T20:19:26;99371.13;;;-1.55;47.43
54122;BME280;40029;58.708;50.190;2023-01-29T20:21:57;99366.88;;;-1.55;47.64
54122;BME280;40029;58.708;50.190;2023-01-29T20:24:28;99359.97;;;-1.74;47.44
54122;BME280;40029;58.708;50.190;2023-01-29T20:26:59;99364.22;;;-1.74;47.97
54122;BME280;40029;58.708;50.190;2023-01-29T20:29:32;99357.44;;;-1.66;47.48
54122;BME280;40029;58.708;50.190;2023-01-29T20:32:04;99359.19;;;-1.61;47.21
54122;BME280;40029;58.708;50.190;2023-01-29T20:34:37;99365.16;;;-1.57;47.67
54122;BME280;40029;58.708;50.190;2023-01-29T20:37:08;99360.00;;;-1.62;46.95
54122;BME280;40029;58.708;50.190;2023-01-29T20:39:39;99354.84;;;-1.76;47.33
54122;BME280;40029;58.708;50.190;2023-01-29T20:42:10;99318.13;;;-1.96;47.83
54122;BME280;40029;58.708;50.190;2023-01-29T20:44:41;99356.44;;;-1.91;47.49
54122;BME280;40029;58.708;50.190;2023-01-29T20:47:12;99329.97;;;-2.10;48.34
54122;BME280;40029;58.708;50.190;2023-01-29T20:49:43;99359.09;;;-1.82;47.68
54122;BME280;40029;58.708;50.190;2023-01-29T20:52:14;99363.34;;;-1.75;47.86
54122;BME280;40029;58.708;50.190;2023-01-29T20:54:45;99337.63;;;-2.13;47.90
54122;BME280;40029;58.708;50.190;2023-01-29T20:57:16;99367.53;;;-1.88;47.75
54122;BME280;40029;58.708;50.190;2023-01-29T20:59:47;99370.16;;;-1.80;47.73
54122;BME280;40029;58.708;50.190;2023-01-29T21:02:18;99360.00;;;-1.65;47.06
54122;BME280;40029;58.708;50.190;2023-01-29T21:04:49;99371.91;;;-1.67;47.41
54122;BME280;40029;58.708;50.190;2023-01-29T21:07:20;99358.28;;;-1.66;47.58
54122;BME280;40029;58.708;50.190;2023-01-29T21:09:51;99374.44;;;-1.71;47.54
54122;BME280;40029;58.708;50.190;2023-01-29T21:12:22;99323.25;;;-1.91;46.99
54122;BME280;40029;58.708;50.190;2023-01-29T21:14:54;99374.38;;;-1.87;47.96
54122;BME280;40029;58.708;50.190;2023-01-29T21:17:25;99355.69;;;-1.77;47.26
54122;BME280;40029;58.708;50.190;2023-01-29T21:19:55;99368.41;;;-1.86;47.77
54122;BME280;40029;58.708;50.190;2023-01-29T21:22:26;99365.13;;;-1.63;47.40
54122;BME280;40029;58.708;50.190;2023-01-29T21:24:57;99361.56;;;-1.91;48.34
54122;BME280;40029;58.708;50.190;2023-01-29T21:27:28;99351.44;;;-1.76;47.87
54122;BME280;40029;58.708;50.190;2023-01-29T21:29:59;99365.78;;;-1.98;48.58
54122;BME280;40029;58.708;50.190;2023-01-29T21:32:31;99371.00;;;-1.81;48.32
54122;BME280;40029;58.708;50.190;2023-01-29T21:35:02;99291.63;;;-2.22;47.97
54122;BME280;40029;58.708;50.190;2023-01-29T21:37:34;99357.44;;;-1.66;47.63
54122;BME280;40029;58.708;50.190;2023-01-29T21:40:08;99363.41;;;-1.67;47.66
54122;BME280;40029;58.708;50.190;2023-01-29T21:42:39;99361.63;;;-1.82;47.67
54122;BME280;40029;58.708;50.190;2023-01-29T21:45:29;99363.34;;;-1.80;47.35
54122;BME280;40029;58.708;50.190;2023-01-29T21:48:00;99308.69;;;-2.14;47.71
54122;BME280;40029;58.708;50.190;2023-01-29T21:50:31;99353.94;;;-1.84;47.76
54122;BME280;40029;58.708;50.190;2023-01-29T21:53:02;99356.53;;;-1.79;47.27
54122;BME280;40029;58.708;50.190;2023-01-29T21:55:33;99349.75;;;-1.77;46.88
54122;BME280;40029;58.708;50.190;2023-01-29T21:58:04;99359.78;;;-2.05;47.57
54122;BME280;40029;58.708;50.190;2023-01-29T22:00:35;99340.31;;;-1.89;47.41
54122;BME280;40029;58.708;50.190;2023-01-29T22:03:06;99356.34;;;-2.10;48.16
54122;BME280;40029;58.708;50.190;2023-01-29T22:05:37;99355.66;;;-1.86;47.21
54122;BME280;40029;58.708;50.190;2023-01-29T22:08:09;99308.72;;;-2.05;47.55
54122;BME280;40029;58.708;50.190;2023-01-29T22:10:40;99344.59;;;-1.83;47.26
54122;BME280;40029;58.708;50.190;2023-01-29T22:13:11;99343.75;;;-1.87;47.65
54122;BME280;40029;58.708;50.190;2023-01-29T22:15:42;99350.59;;;-1.70;47.27
54122;BME280;40029;58.708;50.190;2023-01-29T22:18:13;99356.56;;;-1.71;47.37
54122;BME280;40029;58.708;50.190;2023-01-29T22:20:44;99349.75;;;-1.71;46.69
54122;BME280;40029;58.708;50.190;2023-01-29T22:23:15;99355.69;;;-1.75;46.99
54122;BME280;40029;58.708;50.190;2023-01-29T22:25:46;99354.03;;;-1.68;46.84
54122;BME280;40029;58.708;50.190;2023-01-29T22:28:17;99359.16;;;-1.65;46.81
54122;BME280;40029;58.708;50.190;2023-01-29T22:30:48;99310.44;;;-2.05;46.63
54122;BME280;40029;58.708;50.190;2023-01-29T22:33:19;99363.38;;;-1.73;47.08
54122;BME280;40029;58.708;50.190;2023-01-29T22:35:53;99348.84;;;-1.87;46.42
54122;BME280;40029;58.708;50.190;2023-01-29T22:38:27;99359.94;;;-1.80;46.28
54122;BME280;40029;58.708;50.190;2023-01-29T22:40:58;99341.19;;;-1.87;46.90
54122;BME280;40029;58.708;50.190;2023-01-29T22:43:30;99349.66;;;-1.88;46.72
54122;BME280;40029;58.708;50.190;2023-01-29T22:46:06;99353.97;;;-1.81;46.83
54122;BME280;40029;58.708;50.190;2023-01-29T22:48:37;99359.06;;;-1.84;46.15
54122;BME280;40029;58.708;50.190;2023-01-29T22:51:08;99351.38;;;-1.88;46.44
54122;BME280;40029;58.708;50.190;2023-01-29T22:56:12;99354.69;;;-2.00;47.15
54122;BME280;40029;58.708;50.190;2023-01-29T22:58:43;99323.91;;;-2.32;46.68
54122;BME280;40029;58.708;50.190;2023-01-29T23:01:17;99363.19;;;-2.04;46.55
54122;BME280;40029;58.708;50.190;2023-01-29T23:03:49;99324.69;;;-2.39;46.92
54122;BME280;40029;58.708;50.190;2023-01-29T23:06:20;99344.31;;;-2.31;46.69
54122;BME280;40029;58.708;50.190;2023-01-29T23:08:51;99358.84;;;-2.20;46.70
54122;BME280;40029;58.708;50.190;2023-01-29T23:11:22;99353.75;;;-2.20;46.54
54122;BME280;40029;58.708;50.190;2023-01-29T23:13:54;99365.69;;;-2.16;46.84
54122;BME280;40029;58.708;50.190;2023-01-29T23:16:25;99363.88;;;-2.31;46.64
54122;BME280;40029;58.708;50.190;2023-01-29T23:18:57;99362.13;;;-2.37;46.86
54122;BME280;40029;58.708;50.190;2023-01-29T23:21:28;99363.88;;;-2.30;46.34
54122;BME280;40029;58.708;50.190;2023-01-29T23:23:59;99359.53;;;-2.44;47.11
54122;BME280;40029;58.708;50.190;2023-01-29T23:26:31;99356.91;;;-2.52;46.88
54122;BME280;40029;58.708;50.190;2023-01-29T23:29:20;99356.94;;;-2.49;46.64
54122;BME280;40029;58.708;50.190;2023-01-29T23:31:51;99369.66;;;-2.52;46.97
54122;BME280;40029;58.708;50.190;2023-01-29T23:34:22;99361.13;;;-2.56;47.09
54122;BME280;40029;58.708;50.190;2023-01-29T23:36:53;99364.59;;;-2.50;46.83
54122;BME280;40029;58.708;50.190;2023-01-29T23:39:24;99326.88;;;-2.85;46.70
54122;BME280;40029;58.708;50.190;2023-01-29T23:41:55;99372.09;;;-2.64;46.88
54122;BME280;40029;58.708;50.190;2023-01-29T23:44:27;99315.84;;;-2.86;46.25
54122;BME280;40029;58.708;50.190;2023-01-29T23:46:58;99330.34;;;-2.77;46.80
54122;BME280;40029;58.708;50.190;2023-01-29T23:49:29;99364.50;;;-2.60;46.58
54122;BME280;40029;58.708;50.190;2023-01-29T23:52:00;99375.59;;;-2.53;46.74
54122;BME280;40029;58.708;50.190;2023-01-29T23:54:31;99336.22;;;-2.86;46.17
54122;BME280;40029;58.708;50.190;2023-01-29T23:57:02;99329.50;;;-2.78;46.34
54122;BME280;40029;58.708;50.190;2023-01-29T23:59:33;99373.91;;;-2.54;46.25
